Time;durP1;ratioP1;P1;durP2;ratioP2;P2;SDS_P1;SDS_P2;PMS_P1;PMS_P2;Temp;Humidity;BMP_temperature;BMP_pressure;BME280_temperature;BME280_humidity;BME280_pressure;Samples;Min_cycle;Max_cycle;Signal;HPM_P1;HPM_P2
2022/10/02 00:01:02;;;;;;;;;;;;;;;;;;4782576;29;19945;-91
2022/10/02 00:03:28;;;;;;;;;;;;;;;;;;4798587;29;20420;-91
2022/10/02 00:05:54;;;;;;;;;;;;;;;;;;4779660;29;19940;-91
2022/10/02 00:08:20;;;;;;;;;;;;;;;;;;4813021;29;20293;-92
2022/10/02 00:10:46;;;;;;;;;;;;;;;;;;4795176;29;19988;-91
2022/10/02 00:13:14;;;;;;;;;;;;;;;;;;4784781;29;19929;-91
2022/10/02 00:15:40;;;;;;;;;;;;;;;;;;4791955;29;20027;-91
2022/10/02 00:18:06;;;;;;;;;;;;;;;;;;4787010;29;20419;-91
2022/10/02 00:20:32;;;;;;;;;;;;;;;;;;4796541;29;21072;-92
2022/10/02 00:23:01;;;;;;;;;;;;;;;;;;4791342;29;19928;-91
2022/10/02 00:25:27;;;;;;;;;;;;;;;;;;4797326;29;20427;-91
2022/10/02 00:27:59;;;;;;;;;;;;;;;;;;4778135;29;19939;-91
2022/10/02 00:30:25;;;;;;;;;;;;;;;;;;4812057;29;19959;-91
2022/10/02 00:32:54;;;;;;;;;;;;;;;;;;4811079;29;20012;-93
2022/10/02 00:35:20;;;;;;;;;;;;;;;;;;4806793;29;20277;-91
2022/10/02 00:37:49;;;;;;;;;;;;;;;;;;4777682;29;19932;-91
2022/10/02 00:40:17;;;;;;;;;;;;;;;;;;4804573;29;19949;-91
2022/10/02 00:42:46;;;;;;;;;;;;;;;;;;4794220;29;19929;-91
2022/10/02 00:45:12;;;;;;;;;;;;;;;;;;4803264;29;19933;-91
2022/10/02 00:47:41;;;;;;;;;;;;;;;;;;4802812;29;19936;-91
2022/10/02 00:50:07;;;;;;;;;;;;;;;;;;4781828;29;20334;-91
2022/10/02 00:52:33;;;;;;;;;;;;;;;;;;4796545;29;20021;-92
2022/10/02 00:55:07;;;;;;;;;;;;;;;;;;4799261;29;19939;-92
2022/10/02 00:57:33;;;;;;;;;;;;;;;;;;4795433;29;19929;-91
2022/10/02 01:00:02;;;;;;;;;;;;;;;;;;4780425;29;20232;-92
2022/10/02 01:02:31;;;;;;;;;;;;;;;;;;4813814;29;20419;-91
2022/10/02 01:05:02;;;;;;;;;;;;;;;;;;4794706;29;19933;-92
2022/10/02 01:07:28;;;;;;;;;;;;;;;;;;4803557;29;19936;-91
2022/10/02 01:09:54;;;;;;;;;;;;;;;;;;4791015;29;20036;-91
2022/10/02 01:12:21;;;;;;;;;;;;;;;;;;4779226;29;19928;-91
2022/10/02 01:14:46;;;;;;;;;;;;;;;;;;4797109;29;20021;-91
2022/10/02 01:17:13;;;;;;;;;;;;;;;;;;4782959;29;20023;-91
2022/10/02 01:19:39;;;;;;;;;;;;;;;;;;4787082;29;20073;-91
2022/10/02 01:22:05;;;;;;;;;;;;;;;;;;4796377;29;19932;-91
2022/10/02 01:24:31;;;;;;;;;;;;;;;;;;4801715;29;19954;-92
2022/10/02 01:27:00;;;;;;;;;;;;;;;;;;4788703;29;20334;-91
2022/10/02 01:29:26;;;;;;;;;;;;;;;;;;4779608;29;19933;-92
2022/10/02 01:31:52;;;;;;;;;;;;;;;;;;4785986;29;19928;-91
2022/10/02 01:34:21;;;;;;;;;;;;;;;;;;4781710;29;19945;-91
2022/10/02 01:36:52;;;;;;;;;;;;;;;;;;4784408;29;19933;-92
2022/10/02 01:39:18;;;;;;;;;;;;;;;;;;4789339;29;20336;-91
2022/10/02 01:41:44;;;;;;;;;;;;;;;;;;4775150;29;19936;-91
2022/10/02 01:44:10;;;;;;;;;;;;;;;;;;4795629;29;19935;-92
2022/10/02 01:46:38;;;;;;;;;;;;;;;;;;4774308;29;19940;-91
2022/10/02 01:49:05;;;;;;;;;;;;;;;;;;4767764;29;21787;-92
2022/10/02 01:51:31;;;;;;;;;;;;;;;;;;4775903;29;19928;-91
2022/10/02 01:53:59;;;;;;;;;;;;;;;;;;4768953;29;19939;-93
2022/10/02 01:56:25;;;;;;;;;;;;;;;;;;4775169;29;19936;-92
2022/10/02 01:58:51;;;;;;;;;;;;;;;;;;4793122;29;19929;-91
2022/10/02 02:01:17;;;;;;;;;;;;;;;;;;4791462;29;20355;-91
2022/10/02 02:03:45;;;;;;;;;;;;;;;;;;4771666;29;20407;-92
2022/10/02 02:06:11;;;;;;;;;;;;;;;;;;4778692;29;19933;-92
2022/10/02 02:08:40;;;;;;;;;;;;;;;;;;4794672;29;19947;-91
2022/10/02 02:11:06;;;;;;;;;;;;;;;;;;4789388;29;20288;-90
2022/10/02 02:13:32;;;;;;;;;;;;;;;;;;4792162;29;20265;-89
2022/10/02 02:15:58;;;;;;;;;;;;;;;;;;4790880;29;21562;-90
2022/10/02 02:18:30;;;;;;;;;;;;;;;;;;4795965;29;19928;-90
2022/10/02 02:20:59;;;;;;;;;;;;;;;;;;4818548;29;19986;-90
2022/10/02 02:23:25;;;;;;;;;;;;;;;;;;4799162;29;19943;-89
2022/10/02 02:25:51;;;;;;;;;;;;;;;;;;4792401;29;20404;-90
2022/10/02 02:28:20;;;;;;;;;;;;;;;;;;4780666;29;20039;-91
2022/10/02 02:30:46;;;;;;;;;;;;;;;;;;4806208;29;19936;-90
2022/10/02 02:33:12;;;;;;;;;;;;;;;;;;4798200;29;19933;-90
2022/10/02 02:35:42;;;;;;;;;;;;;;;;;;4786555;29;20372;-89
2022/10/02 02:38:09;;;;;;;;;;;;;;;;;;4787186;29;20019;-90
2022/10/02 02:40:35;;;;;;;;;;;;;;;;;;4801562;29;20394;-90
2022/10/02 02:43:03;;;;;;;;;;;;;;;;;;4793047;29;19940;-90
2022/10/02 02:45:32;;;;;;;;;;;;;;;;;;4798459;29;19929;-91
2022/10/02 02:47:58;;;;;;;;;;;;;;;;;;4791802;29;20444;-90
2022/10/02 02:50:27;;;;;;;;;;;;;;;;;;4797015;29;19982;-90
2022/10/02 02:52:56;;;;;;;;;;;;;;;;;;4789239;29;19961;-90
2022/10/02 02:55:24;;;;;;;;;;;;;;;;;;4793892;29;19929;-91
2022/10/02 02:57:51;;;;;;;;;;;;;;;;;;4775463;29;19937;-90
2022/10/02 03:00:18;;;;;;;;;;;;;;;;;;4777014;29;19968;-91
2022/10/02 03:02:45;;;;;;;;;;;;;;;;;;4786230;29;19940;-90
2022/10/02 03:05:16;;;;;;;;;;;;;;;;;;4790861;29;19951;-90
2022/10/02 03:07:45;;;;;;;;;;;;;;;;;;4778595;29;19933;-90
2022/10/02 03:10:11;;;;;;;;;;;;;;;;;;4778207;29;24212;-90
2022/10/02 03:12:37;;;;;;;;;;;;;;;;;;4779139;29;20023;-91
2022/10/02 03:15:07;;;;;;;;;;;;;;;;;;4791741;29;20333;-91
2022/10/02 03:17:33;;;;;;;;;;;;;;;;;;4807183;29;21752;-91
2022/10/02 03:19:59;;;;;;;;;;;;;;;;;;4796844;29;19933;-91
2022/10/02 03:22:25;;;;;;;;;;;;;;;;;;4771509;29;19925;-91
2022/10/02 03:24:54;;;;;;;;;;;;;;;;;;4773551;29;19971;-91
2022/10/02 03:27:23;;;;;;;;;;;;;;;;;;4779433;29;20335;-91
2022/10/02 03:29:52;;;;;;;;;;;;;;;;;;4785853;29;20715;-90
2022/10/02 03:32:20;;;;;;;;;;;;;;;;;;4780551;29;20262;-92
2022/10/02 03:34:50;;;;;;;;;;;;;;;;;;4790676;29;19936;-91
2022/10/02 03:37:16;;;;;;;;;;;;;;;;;;4776302;29;19928;-91
2022/10/02 03:39:45;;;;;;;;;;;;;;;;;;4791265;29;20345;-90
2022/10/02 03:42:11;;;;;;;;;;;;;;;;;;4795674;29;20004;-90
2022/10/02 03:44:37;;;;;;;;;;;;;;;;;;4784732;29;20068;-91
2022/10/02 03:47:03;;;;;;;;;;;;;;;;;;4789506;29;19937;-91
2022/10/02 03:49:29;;;;;;;;;;;;;;;;;;4806008;29;19991;-90
2022/10/02 03:51:57;;;;;;;;;;;;;;;;;;4777136;29;20023;-90
2022/10/02 03:54:23;;;;;;;;;;;;;;;;;;4778241;29;19924;-91
2022/10/02 03:56:49;;;;;;;;;;;;;;;;;;4790089;29;20442;-90
2022/10/02 03:59:18;;;;;;;;;;;;;;;;;;4778760;29;19981;-91
2022/10/02 04:01:47;;;;;;;;;;;;;;;;;;4789053;29;21246;-91
2022/10/02 04:04:22;;;;;;;;;;;;;;;;;;4782070;29;19925;-90
2022/10/02 04:06:51;;;;;;;;;;;;;;;;;;4784776;29;19933;-91
2022/10/02 04:09:17;;;;;;;;;;;;;;;;;;4812156;29;19991;-91
2022/10/02 04:11:43;;;;;;;;;;;;;;;;;;4801139;29;19942;-92
2022/10/02 04:14:11;;;;;;;;;;;;;;;;;;4796554;29;20461;-91
2022/10/02 04:16:37;;;;;;;;;;;;;;;;;;4778718;29;20017;-90
2022/10/02 04:19:04;;;;;;;;;;;;;;;;;;4809593;29;19939;-91
2022/10/02 04:21:30;;;;;;;;;;;;;;;;;;4786854;29;19961;-91
2022/10/02 04:23:59;;;;;;;;;;;;;;;;;;4793836;29;19933;-91
2022/10/02 04:26:25;;;;;;;;;;;;;;;;;;4769097;29;19937;-90
2022/10/02 04:28:54;;;;;;;;;;;;;;;;;;4773953;29;20360;-91
2022/10/02 04:31:26;;;;;;;;;;;;;;;;;;4790773;29;19924;-91
2022/10/02 04:33:52;;;;;;;;;;;;;;;;;;4774994;29;19924;-91
2022/10/02 04:36:18;;;;;;;;;;;;;;;;;;4795314;29;19941;-90
2022/10/02 04:38:53;;;;;;;;;;;;;;;;;;4785594;29;19924;-91
2022/10/02 04:41:19;;;;;;;;;;;;;;;;;;4811690;29;20358;-91
2022/10/02 04:43:48;;;;;;;;;;;;;;;;;;4789338;29;20261;-91
2022/10/02 04:46:14;;;;;;;;;;;;;;;;;;4778450;29;19964;-91
2022/10/02 04:48:40;;;;;;;;;;;;;;;;;;4781516;29;19940;-92
2022/10/02 04:51:13;;;;;;;;;;;;;;;;;;4782688;29;19924;-92
2022/10/02 04:53:40;;;;;;;;;;;;;;;;;;4778239;29;19976;-92
2022/10/02 04:56:06;;;;;;;;;;;;;;;;;;4808744;29;20400;-91
2022/10/02 04:58:35;;;;;;;;;;;;;;;;;;4801832;29;20288;-90
2022/10/02 05:01:04;;;;;;;;;;;;;;;;;;4796635;29;21026;-91
2022/10/02 05:03:30;;;;;;;;;;;;;;;;;;4795862;29;19933;-91
2022/10/02 05:05:59;;;;;;;;;;;;;;;;;;4803421;29;19975;-91
2022/10/02 05:08:35;;;;;;;;;;;;;;;;;;;;;
2022/10/02 05:11:04;;;;;;;;;;;;;;;;;;4794793;29;20076;-91
2022/10/02 05:13:32;;;;;;;;;;;;;;;;;;4784727;29;20027;-91
2022/10/02 05:16:04;;;;;;;;;;;;;;;;;;4792354;29;20423;-90
2022/10/02 05:18:33;;;;;;;;;;;;;;;;;;4783129;29;19928;-90
2022/10/02 05:21:05;;;;;;;;;;;;;;;;;;4792274;29;20757;-91
2022/10/02 05:23:31;;;;;;;;;;;;;;;;;;4792603;29;20573;-91
2022/10/02 05:25:57;;;;;;;;;;;;;;;;;;4804291;29;19935;-91
2022/10/02 05:28:23;;;;;;;;;;;;;;;;;;4795640;29;19939;-91
2022/10/02 05:30:59;;;;;;;;;;;;;;;;;;4794024;29;19928;-90
2022/10/02 05:33:27;;;;;;;;;;;;;;;;;;4810873;29;19929;-92
2022/10/02 05:35:56;;;;;;;;;;;;;;;;;;4793404;29;20319;-91
2022/10/02 05:38:22;;;;;;;;;;;;;;;;;;4792088;29;19924;-90
2022/10/02 05:40:48;;;;;;;;;;;;;;;;;;4794684;29;19993;-91
2022/10/02 05:43:14;;;;;;;;;;;;;;;;;;4795859;29;19944;-92
2022/10/02 05:45:40;;;;;;;;;;;;;;;;;;4796983;29;20404;-91
2022/10/02 05:48:06;;;;;;;;;;;;;;;;;;4775684;29;19933;-91
2022/10/02 05:50:35;;;;;;;;;;;;;;;;;;4795664;29;23732;-92
2022/10/02 05:53:01;;;;;;;;;;;;;;;;;;4792447;29;19933;-91
2022/10/02 05:55:30;;;;;;;;;;;;;;;;;;4796726;29;19932;-92
2022/10/02 05:57:56;;;;;;;;;;;;;;;;;;4791091;29;19928;-91
2022/10/02 06:00:22;;;;;;;;;;;;;;;;;;4777732;29;21384;-92
2022/10/02 06:03:04;;;;;;;;;;;;;;;;;;4804473;29;19932;-92
2022/10/02 06:05:33;;;;;;;;;;;;;;;;;;4799184;29;19935;-92
2022/10/02 06:08:02;;;;;;;;;;;;;;;;;;4785659;29;20014;-92
2022/10/02 06:10:28;;;;;;;;;;;;;;;;;;4806686;29;20441;-93
2022/10/02 06:12:57;;;;;;;;;;;;;;;;;;4791179;29;21103;-92
2022/10/02 06:15:23;;;;;;;;;;;;;;;;;;4787799;29;19932;-92
2022/10/02 06:17:49;;;;;;;;;;;;;;;;;;4777388;29;19932;-92
2022/10/02 06:20:15;;;;;;;;;;;;;;;;;;4795864;29;19935;-92
2022/10/02 06:22:49;;;;;;;;;;;;;;;;;;4784173;29;20023;-92
2022/10/02 06:25:14;;;;;;;;;;;;;;;;;;4808973;29;20330;-92
2022/10/02 06:27:42;;;;;;;;;;;;;;;;;;4777724;29;19944;-92
2022/10/02 06:30:11;;;;;;;;;;;;;;;;;;4794230;29;19939;-92
2022/10/02 06:32:37;;;;;;;;;;;;;;;;;;4790890;29;19929;-91
2022/10/02 06:35:05;;;;;;;;;;;;;;;;;;4773630;29;19931;-91
2022/10/02 06:37:35;;;;;;;;;;;;;;;;;;4780336;29;19934;-91
2022/10/02 06:40:04;;;;;;;;;;;;;;;;;;4801117;29;20320;-91
2022/10/02 06:42:32;;;;;;;;;;;;;;;;;;4773754;29;19932;-91
2022/10/02 06:44:58;;;;;;;;;;;;;;;;;;4791246;29;20659;-91
2022/10/02 06:47:24;;;;;;;;;;;;;;;;;;4816163;29;19936;-91
2022/10/02 06:49:50;;;;;;;;;;;;;;;;;;4793997;29;19939;-91
2022/10/02 06:52:16;;;;;;;;;;;;;;;;;;4796626;29;19932;-91
2022/10/02 06:54:42;;;;;;;;;;;;;;;;;;4808915;29;19939;-92
2022/10/02 06:57:10;;;;;;;;;;;;;;;;;;4795941;29;20437;-92
2022/10/02 06:59:39;;;;;;;;;;;;;;;;;;4802077;29;20481;-92
2022/10/02 07:02:07;;;;;;;;;;;;;;;;;;4784299;29;19933;-92
2022/10/02 07:04:34;;;;;;;;;;;;;;;;;;4784507;29;19928;-92
2022/10/02 07:07:01;;;;;;;;;;;;;;;;;;4794895;29;19939;-93
2022/10/02 07:09:27;;;;;;;;;;;;;;;;;;4802651;29;20055;-93
2022/10/02 07:11:54;;;;;;;;;;;;;;;;;;4787558;29;20299;-91
2022/10/02 07:14:20;;;;;;;;;;;;;;;;;;4800246;29;20437;-93
2022/10/02 07:16:46;;;;;;;;;;;;;;;;;;4793757;29;19924;-92
2022/10/02 07:19:12;;;;;;;;;;;;;;;;;;4785876;29;20299;-91
2022/10/02 07:21:38;;;;;;;;;;;;;;;;;;4790713;29;19967;-92
2022/10/02 07:24:04;;;;;;;;;;;;;;;;;;4782110;29;19933;-92
2022/10/02 07:26:30;;;;;;;;;;;;;;;;;;4785100;29;19932;-92
2022/10/02 07:28:56;;;;;;;;;;;;;;;;;;4800283;29;19937;-92
2022/10/02 07:31:25;;;;;;;;;;;;;;;;;;4802456;29;19932;-92
2022/10/02 07:33:57;;;;;;;;;;;;;;;;;;4797080;29;19947;-92
2022/10/02 07:36:25;;;;;;;;;;;;;;;;;;4798610;29;20380;-92
2022/10/02 07:38:59;;;;;;;;;;;;;;;;;;4787934;29;20492;-92
2022/10/02 07:41:25;;;;;;;;;;;;;;;;;;4796523;29;19936;-92
2022/10/02 07:43:51;;;;;;;;;;;;;;;;;;4782250;29;19932;-92
2022/10/02 07:46:20;;;;;;;;;;;;;;;;;;4796838;29;19929;-90
2022/10/02 07:48:46;;;;;;;;;;;;;;;;;;4812336;29;20467;-93
2022/10/02 07:54:00;;;;;;;;;;;;;;;;;;4796837;29;19984;-91
2022/10/02 07:56:26;;;;;;;;;;;;;;;;;;4818600;29;20108;-92
2022/10/02 07:58:54;;;;;;;;;;;;;;;;;;4790848;29;19993;-92
2022/10/02 08:01:23;;;;;;;;;;;;;;;;;;4799453;29;20288;-91
2022/10/02 08:03:52;;;;;;;;;;;;;;;;;;4794995;29;20015;-91
2022/10/02 08:06:18;;;;;;;;;;;;;;;;;;4816438;29;19951;-92
2022/10/02 08:08:50;;;;;;;;;;;;;;;;;;4797455;29;19988;-91
2022/10/02 08:11:22;;;;;;;;;;;;;;;;;;4801101;29;20379;-91
2022/10/02 08:13:48;;;;;;;;;;;;;;;;;;4797155;29;22020;-92
2022/10/02 08:16:14;;;;;;;;;;;;;;;;;;4802632;29;19980;-91
2022/10/02 08:18:43;;;;;;;;;;;;;;;;;;4787376;29;19932;-91
2022/10/02 08:21:09;;;;;;;;;;;;;;;;;;4801287;29;20388;-91
2022/10/02 08:23:37;;;;;;;;;;;;;;;;;;4784802;29;19928;-92
2022/10/02 08:26:03;;;;;;;;;;;;;;;;;;4781074;29;19948;-91
2022/10/02 08:28:32;;;;;;;;;;;;;;;;;;4814776;29;21277;-92
2022/10/02 08:31:05;;;;;;;;;;;;;;;;;;4790831;29;20560;-91
2022/10/02 08:33:35;;;;;;;;;;;;;;;;;;4812019;29;19973;-92
2022/10/02 08:36:04;;;;;;;;;;;;;;;;;;4778193;29;20577;-92
2022/10/02 08:38:35;;;;;;;;;;;;;;;;;;4799809;29;19976;-92
2022/10/02 08:41:03;;;;;;;;;;;;;;;;;;4794180;29;19925;-93
2022/10/02 08:43:32;;;;;;;;;;;;;;;;;;4786058;29;19934;-93
2022/10/02 08:46:01;;;;;;;;;;;;;;;;;;4798132;29;19928;-92
2022/10/02 08:48:35;;;;;;;;;;;;;;;;;;4785893;29;19932;-91
2022/10/02 08:51:04;;;;;;;;;;;;;;;;;;4812556;29;19939;-92
2022/10/02 08:53:30;;;;;;;;;;;;;;;;;;4799977;29;22046;-92
2022/10/02 08:56:05;;;;;;;;;;;;;;;;;;4792335;29;19931;-92
2022/10/02 08:58:34;;;;;;;;;;;;;;;;;;4783452;29;20384;-92
2022/10/02 09:01:08;;;;;;;;;;;;;;;;;;4795227;29;19940;-91
2022/10/02 09:03:36;;;;;;;;;;;;;;;;;;4801699;29;19952;-92
2022/10/02 09:06:05;;;;;;;;;;;;;;;;;;4790360;29;19939;-92
2022/10/02 09:08:32;;;;;;;;;;;;;;;;;;4782385;29;20027;-93
2022/10/02 09:11:01;;;;;;;;;;;;;;;;;;4772726;29;19933;-93
2022/10/02 09:13:27;;;;;;;;;;;;;;;;;;4791312;29;19936;-92
2022/10/02 09:15:56;;;;;;;;;;;;;;;;;;4808061;29;19939;-92
2022/10/02 09:18:25;;;;;;;;;;;;;;;;;;4797169;29;20736;-92
2022/10/02 09:20:51;;;;;;;;;;;;;;;;;;4802513;29;19936;-92
2022/10/02 09:23:17;;;;;;;;;;;;;;;;;;4798218;29;19932;-92
2022/10/02 09:25:45;;;;;;;;;;;;;;;;;;4814051;29;19928;-91
2022/10/02 09:28:23;;;;;;;;;;;;;;;;;;4794902;29;20296;-92
2022/10/02 09:30:52;;;;;;;;;;;;;;;;;;4781540;29;20366;-92
2022/10/02 09:33:26;;;;;;;;;;;;;;;;;;4812404;29;20411;-92
2022/10/02 09:35:54;;;;;;;;;;;;;;;;;;4787860;29;19933;-92
2022/10/02 09:38:22;;;;;;;;;;;;;;;;;;4781359;29;19939;-92
2022/10/02 09:40:52;;;;;;;;;;;;;;;;;;4784945;29;20019;-93
2022/10/02 09:43:18;;;;;;;;;;;;;;;;;;4780177;29;20007;-92
2022/10/02 09:45:50;;;;;;;;;;;;;;;;;;4792488;29;19936;-92
2022/10/02 09:48:19;;;;;;;;;;;;;;;;;;4791659;29;19978;-92
2022/10/02 09:50:45;;;;;;;;;;;;;;;;;;4792198;29;20032;-93
2022/10/02 09:53:19;;;;;;;;;;;;;;;;;;4796662;29;21127;-93
2022/10/02 09:55:54;;;;;;;;;;;;;;;;;;4799096;29;19975;-92
2022/10/02 09:58:20;;;;;;;;;;;;;;;;;;4779402;29;19932;-92
2022/10/02 10:00:50;;;;;;;;;;;;;;;;;;4807097;29;19933;-92
2022/10/02 10:03:22;;;;;;;;;;;;;;;;;;4808761;29;20502;-91
2022/10/02 10:05:49;;;;;;;;;;;;;;;;;;4779091;29;19928;-93
2022/10/02 10:08:19;;;;;;;;;;;;;;;;;;4793515;29;19932;-94
2022/10/02 10:10:51;;;;;;;;;;;;;;;;;;4790437;29;19938;-93
2022/10/02 10:13:23;;;;;;;;;;;;;;;;;;4780939;29;19928;-92
2022/10/02 10:16:02;;;;;;;;;;;;;;;;;;4808365;29;19940;-92
2022/10/02 10:18:35;;;;;;;;;;;;;;;;;;4789987;29;20037;-92
2022/10/02 10:21:01;;;;;;;;;;;;;;;;;;4794347;29;19981;-92
2022/10/02 10:23:37;;;;;;;;;;;;;;;;;;4813184;29;19935;-91
2022/10/02 10:26:06;;;;;;;;;;;;;;;;;;4783638;29;20534;-92
2022/10/02 10:28:33;;;;;;;;;;;;;;;;;;4805661;29;19937;-92
2022/10/02 10:31:00;;;;;;;;;;;;;;;;;;4815584;29;19976;-92
2022/10/02 10:33:31;;;;;;;;;;;;;;;;;;4798157;29;19939;-92
2022/10/02 10:36:00;;;;;;;;;;;;;;;;;;4782858;29;20407;-92
2022/10/02 10:38:32;;;;;;;;;;;;;;;;;;4805044;29;20443;-91
2022/10/02 10:41:04;;;;;;;;;;;;;;;;;;4802974;29;19939;-92
2022/10/02 10:43:38;;;;;;;;;;;;;;;;;;4822017;29;19960;-92
2022/10/02 10:46:05;;;;;;;;;;;;;;;;;;4805003;29;20287;-93
2022/10/02 10:48:33;;;;;;;;;;;;;;;;;;4796602;29;19940;-93
2022/10/02 10:51:02;;;;;;;;;;;;;;;;;;4787284;29;20117;-91
2022/10/02 10:53:28;;;;;;;;;;;;;;;;;;4805627;29;20276;-92
2022/10/02 10:55:58;;;;;;;;;;;;;;;;;;4802486;29;19929;-92
2022/10/02 10:58:29;;;;;;;;;;;;;;;;;;4826299;29;19936;-92
2022/10/02 11:00:55;;;;;;;;;;;;;;;;;;4783198;29;19932;-92
2022/10/02 11:03:21;;;;;;;;;;;;;;;;;;4794710;29;19955;-93
2022/10/02 11:05:47;;;;;;;;;;;;;;;;;;4796216;29;19928;-93
2022/10/02 11:08:13;;;;;;;;;;;;;;;;;;4796120;29;19944;-93
2022/10/02 11:10:39;;;;;;;;;;;;;;;;;;4793736;29;19933;-92
2022/10/02 11:13:05;;;;;;;;;;;;;;;;;;4776490;29;20266;-93
2022/10/02 11:15:33;;;;;;;;;;;;;;;;;;4794904;29;19933;-92
2022/10/02 11:18:15;;;;;;;;;;;;;;;;;;4808991;29;20056;-92
2022/10/02 11:20:45;;;;;;;;;;;;;;;;;;4792269;29;19939;-92
2022/10/02 11:23:18;;;;;;;;;;;;;;;;;;4781956;29;19936;-92
2022/10/02 11:25:50;;;;;;;;;;;;;;;;;;4784421;29;20744;-95
2022/10/02 11:28:20;;;;;;;;;;;;;;;;;;4783462;29;20312;-92
2022/10/02 11:30:48;;;;;;;;;;;;;;;;;;4798415;29;19925;-93
2022/10/02 11:33:18;;;;;;;;;;;;;;;;;;4770068;29;19984;-92
2022/10/02 11:35:47;;;;;;;;;;;;;;;;;;4780970;29;20381;-93
2022/10/02 11:38:15;;;;;;;;;;;;;;;;;;4784192;29;19933;-92
2022/10/02 11:40:44;;;;;;;;;;;;;;;;;;4786780;29;19964;-93
2022/10/02 11:43:10;;;;;;;;;;;;;;;;;;4804083;29;19940;-94
2022/10/02 11:45:40;;;;;;;;;;;;;;;;;;4786954;29;19932;-93
2022/10/02 11:48:08;;;;;;;;;;;;;;;;;;4800843;29;19993;-93
2022/10/02 11:50:39;;;;;;;;;;;;;;;;;;4776636;29;20334;-93
2022/10/02 11:53:10;;;;;;;;;;;;;;;;;;4772388;29;21066;-93
2022/10/02 11:55:44;;;;;;;;;;;;;;;;;;4774144;29;20119;-93
2022/10/02 11:58:10;;;;;;;;;;;;;;;;;;4775789;29;20642;-93
2022/10/02 12:00:37;;;;;;;;;;;;;;;;;;4790570;29;19928;-92
2022/10/02 12:03:03;;;;;;;;;;;;;;;;;;4773847;29;22668;-92
2022/10/02 12:05:34;;;;;;;;;;;;;;;;;;4814114;29;19929;-92
2022/10/02 12:08:00;;;;;;;;;;;;;;;;;;4793675;29;19994;-92
2022/10/02 12:10:30;;;;;;;;;;;;;;;;;;4796271;29;20023;-93
2022/10/02 12:12:56;;;;;;;;;;;;;;;;;;4800586;29;20306;-92
2022/10/02 12:15:32;;;;;;;;;;;;;;;;;;4800468;29;19932;-93
2022/10/02 12:17:58;;;;;;;;;;;;;;;;;;4787707;29;19924;-92
2022/10/02 12:28:41;;;;;;;;;;;;;;;;;;4803476;29;19929;-92
2022/10/02 12:31:09;;;;;;;;;;;;;;;;;;4785036;29;19936;-93
2022/10/02 12:33:35;;;;;;;;;;;;;;;;;;4802512;29;20565;-92
2022/10/02 12:36:05;;;;;;;;;;;;;;;;;;4798736;29;19932;-92
2022/10/02 12:38:32;;;;;;;;;;;;;;;;;;4816708;29;20012;-93
2022/10/02 12:40:58;;;;;;;;;;;;;;;;;;4793457;29;20071;-93
2022/10/02 12:43:27;;;;;;;;;;;;;;;;;;4787284;29;20249;-93
2022/10/02 12:45:57;;;;;;;;;;;;;;;;;;4814925;29;20018;-92
2022/10/02 12:48:23;;;;;;;;;;;;;;;;;;4788742;29;19940;-93
2022/10/02 12:50:51;;;;;;;;;;;;;;;;;;4813209;29;19929;-92
2022/10/02 12:53:17;;;;;;;;;;;;;;;;;;4814711;29;19939;-93
2022/10/02 12:55:50;;;;;;;;;;;;;;;;;;4784513;29;19929;-93
2022/10/02 12:58:17;;;;;;;;;;;;;;;;;;4804029;29;19928;-92
2022/10/02 13:00:43;;;;;;;;;;;;;;;;;;4797782;29;19929;-91
2022/10/02 13:03:09;;;;;;;;;;;;;;;;;;4806967;29;20359;-93
2022/10/02 13:05:35;;;;;;;;;;;;;;;;;;4816006;29;19932;-92
2022/10/02 13:08:04;;;;;;;;;;;;;;;;;;4818905;29;19940;-92
2022/10/02 13:10:33;;;;;;;;;;;;;;;;;;4811517;29;20288;-92
2022/10/02 13:12:59;;;;;;;;;;;;;;;;;;4788435;29;19928;-92
2022/10/02 13:15:25;;;;;;;;;;;;;;;;;;4817787;29;19955;-93
2022/10/02 13:17:56;;;;;;;;;;;;;;;;;;4803527;29;19936;-93
2022/10/02 13:20:25;;;;;;;;;;;;;;;;;;4807486;29;19991;-92
2022/10/02 13:22:51;;;;;;;;;;;;;;;;;;4796816;29;19933;-93
2022/10/02 13:25:17;;;;;;;;;;;;;;;;;;4825186;29;20657;-92
2022/10/02 13:27:48;;;;;;;;;;;;;;;;;;4822507;29;20292;-92
2022/10/02 13:30:17;;;;;;;;;;;;;;;;;;4817818;29;19976;-92
2022/10/02 13:32:43;;;;;;;;;;;;;;;;;;4810432;29;19925;-92
2022/10/02 13:35:09;;;;;;;;;;;;;;;;;;4797952;29;20341;-93
2022/10/02 13:37:35;;;;;;;;;;;;;;;;;;4807543;29;19932;-92
2022/10/02 13:40:04;;;;;;;;;;;;;;;;;;4794477;29;19932;-92
2022/10/02 13:42:32;;;;;;;;;;;;;;;;;;4802908;29;19984;-92
2022/10/02 13:45:04;;;;;;;;;;;;;;;;;;4800075;29;19929;-91
2022/10/02 13:47:30;;;;;;;;;;;;;;;;;;4803163;29;19932;-92
2022/10/02 13:49:56;;;;;;;;;;;;;;;;;;4803511;29;20383;-93
2022/10/02 13:52:25;;;;;;;;;;;;;;;;;;4793251;29;19928;-92
2022/10/02 13:54:51;;;;;;;;;;;;;;;;;;4793622;29;20391;-92
2022/10/02 13:57:17;;;;;;;;;;;;;;;;;;4795778;29;20456;-92
2022/10/02 13:59:43;;;;;;;;;;;;;;;;;;4804014;29;19928;-93
2022/10/02 14:02:09;;;;;;;;;;;;;;;;;;4799547;29;20468;-93
2022/10/02 14:04:35;;;;;;;;;;;;;;;;;;4810271;29;19968;-93
2022/10/02 14:07:01;;;;;;;;;;;;;;;;;;4798853;29;19972;-93
2022/10/02 14:09:27;;;;;;;;;;;;;;;;;;4799304;29;19933;-92
2022/10/02 14:11:56;;;;;;;;;;;;;;;;;;4799562;29;20368;-93
2022/10/02 14:14:22;;;;;;;;;;;;;;;;;;4808693;29;20336;-93
2022/10/02 14:16:48;;;;;;;;;;;;;;;;;;4815981;29;19929;-92
2022/10/02 14:19:16;;;;;;;;;;;;;;;;;;4791094;29;19955;-92
2022/10/02 14:21:45;;;;;;;;;;;;;;;;;;4821485;29;19946;-93
2022/10/02 14:24:11;;;;;;;;;;;;;;;;;;4812316;29;19932;-92
2022/10/02 14:26:37;;;;;;;;;;;;;;;;;;4808676;29;20501;-91
2022/10/02 14:29:03;;;;;;;;;;;;;;;;;;4818439;29;21646;-91
2022/10/02 14:31:29;;;;;;;;;;;;;;;;;;4810716;29;19932;-92
2022/10/02 14:33:58;;;;;;;;;;;;;;;;;;4803166;29;20019;-92
2022/10/02 14:36:33;;;;;;;;;;;;;;;;;;4809747;29;20391;-93
2022/10/02 14:50:36;;;;;;;;;;;;;;;;;;4756081;29;20482;-92
2022/10/02 14:56:35;;;;;;;;;;;;;;;;;;4699422;30;20342;-92
2022/10/02 15:02:14;;;;;;;;;;;;;;;;;;4685485;30;19930;-93
2022/10/02 15:05:32;;;;;;;;;;;;;;;;;;4663303;30;21263;-92
2022/10/02 15:08:18;;;;;;;;;;;;;;;;;;4647951;30;19978;-93
2022/10/02 15:11:19;;;;;;;;;;;;;;;;;;;;;
2022/10/02 15:14:18;;;;;;;;;;;;;;;;;;;;;
2022/10/02 15:44:05;;;;;;;;;;;;;;;;;;4665784;30;20034;-93
2022/10/02 15:59:24;;;;;;;;;;;;;;;;;;4631138;30;19936;-93
2022/10/02 16:02:14;;;;;;;;;;;;;;;;;;4628576;30;21261;-93
2022/10/02 16:13:48;;;;;;;;;;;;;;;;;;4617727;30;20644;-94
2022/10/02 16:22:43;;;;;;;;;;;;;;;;;;;;;
2022/10/02 16:25:35;;;;;;;;;;;;;;;;;;4762947;29;19948;-92
2022/10/02 16:28:35;;;;;;;;;;;;;;;;;;4778978;29;19937;-93
2022/10/02 16:34:18;;;;;;;;;;;;;;;;;;;;;
2022/10/02 16:37:26;;;;;;;;;;;;;;;;;;;;;
2022/10/02 16:52:28;;;;;;;;;;;;;;;;;;4668589;30;20060;-94
2022/10/02 16:58:15;;;;;;;;;;;;;;;;;;4675211;30;19988;-93
2022/10/02 17:00:59;;;;;;;;;;;;;;;;;;4660434;30;19931;-94
2022/10/02 17:03:32;;;;;;;;;;;;;;;;;;4632601;30;19940;-92
2022/10/02 17:05:58;;;;;;;;;;;;;;;;;;4648484;30;19998;-93
2022/10/02 17:08:35;;;;;;;;;;;;;;;;;;;;;
2022/10/02 17:11:04;;;;;;;;;;;;;;;;;;4682475;30;20147;-92
2022/10/02 17:13:32;;;;;;;;;;;;;;;;;;4674599;30;20222;-91
2022/10/02 17:16:01;;;;;;;;;;;;;;;;;;4698553;30;19940;-92
2022/10/02 17:18:27;;;;;;;;;;;;;;;;;;4716286;30;19937;-91
2022/10/02 17:21:02;;;;;;;;;;;;;;;;;;4765340;29;19937;-91
2022/10/02 17:23:29;;;;;;;;;;;;;;;;;;4784551;29;19982;-92
2022/10/02 17:26:00;;;;;;;;;;;;;;;;;;4771182;29;19935;-92
2022/10/02 17:28:27;;;;;;;;;;;;;;;;;;4793748;29;19937;-92
2022/10/02 17:30:57;;;;;;;;;;;;;;;;;;4779635;29;19924;-92
2022/10/02 17:33:26;;;;;;;;;;;;;;;;;;4773339;29;20036;-92
2022/10/02 17:35:53;;;;;;;;;;;;;;;;;;4780431;29;19944;-93
2022/10/02 17:38:27;;;;;;;;;;;;;;;;;;4776031;29;19933;-92
2022/10/02 17:40:54;;;;;;;;;;;;;;;;;;4774662;29;19936;-92
2022/10/02 17:43:22;;;;;;;;;;;;;;;;;;4773599;29;19929;-92
2022/10/02 17:45:51;;;;;;;;;;;;;;;;;;4773751;29;19932;-92
2022/10/02 17:48:18;;;;;;;;;;;;;;;;;;4774115;29;19936;-93
2022/10/02 17:50:46;;;;;;;;;;;;;;;;;;4766228;29;19932;-92
2022/10/02 17:58:54;;;;;;;;;;;;;;;;;;4781585;29;19925;-93
2022/10/02 18:01:21;;;;;;;;;;;;;;;;;;4783673;29;20047;-91
2022/10/02 18:03:49;;;;;;;;;;;;;;;;;;4764634;29;19932;-92
2022/10/02 18:06:15;;;;;;;;;;;;;;;;;;4774866;29;19962;-92
2022/10/02 18:08:52;;;;;;;;;;;;;;;;;;4795622;29;20036;-92
2022/10/02 18:11:22;;;;;;;;;;;;;;;;;;4794788;29;20483;-93
2022/10/02 18:13:52;;;;;;;;;;;;;;;;;;4768383;29;19971;-93
2022/10/02 18:16:20;;;;;;;;;;;;;;;;;;4786638;29;21134;-92
2022/10/02 18:18:52;;;;;;;;;;;;;;;;;;4774329;29;20007;-93
2022/10/02 18:21:22;;;;;;;;;;;;;;;;;;4789049;29;19936;-91
2022/10/02 18:23:56;;;;;;;;;;;;;;;;;;4788211;29;19928;-93
2022/10/02 18:26:26;;;;;;;;;;;;;;;;;;4791422;29;19928;-91
2022/10/02 18:29:03;;;;;;;;;;;;;;;;;;4790670;29;20011;-92
2022/10/02 18:31:34;;;;;;;;;;;;;;;;;;4794252;29;19932;-93
2022/10/02 18:34:05;;;;;;;;;;;;;;;;;;4785183;29;20074;-91
2022/10/02 18:36:36;;;;;;;;;;;;;;;;;;4775011;29;20054;-92
2022/10/02 18:39:06;;;;;;;;;;;;;;;;;;4798038;29;19957;-91
2022/10/02 18:44:19;;;;;;;;;;;;;;;;;;4791828;29;20054;-91
2022/10/02 18:46:48;;;;;;;;;;;;;;;;;;4774311;29;19933;-91
2022/10/02 18:49:15;;;;;;;;;;;;;;;;;;4804498;29;20904;-90
2022/10/02 18:51:45;;;;;;;;;;;;;;;;;;4785021;29;19936;-93
2022/10/02 18:54:31;;;;;;;;;;;;;;;;;;4799733;29;20025;-91